CDT,Max TemperatureF,Mean TemperatureF,Min TemperatureF,Max Dew PointF,MeanDew PointF,Min DewpointF,Max Humidity, Mean Humidity, Min Humidity, Max Sea Level PressureIn, Mean Sea Level PressureIn, Min Sea Level PressureIn, Max VisibilityMiles, Mean VisibilityMiles, Min VisibilityMiles, Max Wind SpeedMPH, Mean Wind SpeedMPH, Max Gust SpeedMPH,PrecipitationIn, CloudCover, Events, WindDirDegrees
2013-5-1,73,68,62,70,65,60,93,89,84,29.95,29.91,29.87,10,7,0,21,11,30,3.42,8,Fog-Rain-Thunderstorm,86
2013-5-2,73,68,62,66,63,60,93,83,73,29.99,29.94,29.88,10,7,0,17,8,22,3.35,8,Fog-Rain-Thunderstorm,76
2013-5-3,73,61,48,64,58,45,96,82,68,29.98,29.90,29.83,10,8,3,22,9,30,0.24,7,Rain,38
2013-5-4,70,57,43,46,39,33,89,58,27,29.99,29.94,29.89,10,10,10,21,9,28,0.00,2,,335
2013-5-5,67,57,47,53,43,37,86,62,37,30.02,29.92,29.86,10,10,10,20,8,29,0.00,2,,279
2013-5-6,72,59,45,53,47,42,93,68,42,30.03,29.98,29.93,10,10,7,17,6,22,0.00,5,,251
2013-5-7,76,63,50,57,54,49,93,70,46,30.05,30.01,29.97,10,10,10,13,4,17,0.00,3,,271
2013-5-8,83,69,55,61,57,53,93,65,37,30.12,30.07,30.02,10,7,0,15,4,18,0.00,4,Fog,233
2013-5-9,82,70,58,65,60,56,93,68,42,30.16,30.11,30.06,10,9,5,16,6,22,0.00,4,Fog,193
2013-5-10,75,70,64,66,64,59,93,77,60,30.16,30.04,29.96,10,7,2,36,7,51,0.42,6,Rain-Thunderstorm,198
2013-5-11,74,68,61,66,63,60,93,83,73,30.08,30.02,29.96,10,6,1,16,4,20,0.32,6,Rain,202
2013-5-12,79,70,60,63,58,51,97,69,40,30.14,30.07,30.02,10,7,0,17,8,21,0.00,4,Fog,339
2013-5-13,79,66,52,52,44,34,86,55,23,30.29,30.22,30.14,10,10,10,17,6,23,0.00,1,,9
2013-5-14,85,68,51,58,53,48,93,61,29,30.30,30.23,30.18,10,10,10,15,4,20,0.00,0,,212
2013-5-15,84,70,55,62,55,47,93,63,32,30.23,30.15,30.06,10,10,7,15,5,18,0.00,4,,185
2013-5-16,84,74,64,66,64,60,90,71,51,30.07,30.03,29.99,10,10,7,17,8,24,0.00,4,,160
2013-5-17,85,76,67,70,67,64,97,76,55,30.07,30.03,29.99,10,9,5,17,9,22,0.00,4,,167
2013-5-18,84,78,71,72,70,68,93,77,61,30.10,30.05,30.02,10,9,5,15,7,17,0.00,5,,192
2013-5-19,83,76,69,71,69,66,100,83,65,30.06,30.03,30.00,10,6,1,14,7,17,0.00,6,Fog,164
2013-5-20,90,80,70,72,68,63,97,69,41,30.06,30.01,29.98,10,8,3,13,8,20,0.00,2,,180
2013-5-21,87,78,68,72,68,64,97,74,50,30.02,29.97,29.90,10,7,0,16,8,22,0.00,4,Fog,160
2013-5-22,83,75,66,71,66,63,93,72,51,30.04,29.95,29.91,10,7,0,17,3,25,0.03,4,Fog-Rain,239
2013-5-23,90,78,65,69,64,56,93,63,32,30.06,30.01,29.96,10,8,2,10,3,15,0.00,2,,278
2013-5-24,90,78,65,69,62,54,97,68,38,30.17,30.11,30.04,10,9,4,16,8,20,0.00,2,,5
2013-5-25,88,74,59,58,51,44,78,52,25,30.25,30.19,30.16,10,10,10,10,5,15,0.00,1,,87
2013-5-26,88,74,60,69,59,52,90,61,31,30.22,30.17,30.14,10,10,10,15,5,21,0.00,1,,144
2013-5-27,86,75,64,68,63,55,90,64,37,30.17,30.13,30.09,10,10,7,20,8,24,0.00,2,,149
2013-5-28,88,73,58,72,65,58,93,71,48,30.11,30.08,30.05,10,9,1,20,7,31,0.12,3,Fog-Rain,143
2013-5-29,87,79,71,71,69,68,93,74,55,30.08,30.04,30.02,10,9,5,23,13,28,0.00,4,,127
2013-5-30,87,81,74,72,70,67,93,72,51,30.08,30.04,30.01,10,9,5,25,13,31,0.04,5,Rain,127
2013-5-31,87,81,75,73,71,69,87,74,61,30.07,30.03,29.98,10,9,7,22,12,26,0.05,6,Rain,141